Time;durP1;ratioP1;P1;durP2;ratioP2;P2;SDS_P1;SDS_P2;PMS_P1;PMS_P2;Temp;Humidity;BMP_temperature;BMP_pressure;BME280_temperature;BME280_humidity;BME280_pressure;Samples;Min_cycle;Max_cycle;Signal;HPM_P1;HPM_P2
2021/01/06 00:00:04;;;;;;;41.60;20.20;;;1.30;88.00;;;;;;5010335;28;20238;-81
2021/01/06 00:02:31;;;;;;;40.60;21.70;;;1.20;89.00;;;;;;5011122;28;20230;-80
2021/01/06 00:04:57;;;;;;;37.13;19.47;;;1.30;88.60;;;;;;5013026;28;20237;-81
2021/01/06 00:07:24;;;;;;;37.13;19.77;;;1.20;88.70;;;;;;5010155;28;20730;-84
2021/01/06 00:09:50;;;;;;;41.27;20.60;;;1.30;88.70;;;;;;5008667;28;20205;-82
2021/01/06 00:12:18;;;;;;;40.07;20.03;;;1.40;86.90;;;;;;5008151;28;20247;-79
2021/01/06 00:14:45;;;;;;;38.90;19.83;;;1.40;87.90;;;;;;5009865;28;20672;-81
2021/01/06 00:17:14;;;;;;;44.57;21.07;;;1.30;87.70;;;;;;5012315;28;20245;-80
2021/01/06 00:19:40;;;;;;;45.93;22.20;;;1.30;87.70;;;;;;5017707;28;20198;-80
2021/01/06 00:22:06;;;;;;;44.27;21.07;;;1.40;87.90;;;;;;5017897;28;20229;-81
2021/01/06 00:24:33;;;;;;;45.67;21.93;;;1.40;87.90;;;;;;5019651;28;20286;-86
2021/01/06 00:26:59;;;;;;;43.93;20.47;;;1.30;88.00;;;;;;5017332;28;20645;-81
2021/01/06 00:29:25;;;;;;;46.07;21.37;;;1.30;87.90;;;;;;5017409;28;20224;-83
2021/01/06 00:31:51;;;;;;;45.43;20.70;;;1.30;88.70;;;;;;5021777;28;20230;-82
2021/01/06 00:34:18;;;;;;;46.40;21.03;;;1.30;88.50;;;;;;5015580;28;20693;-80
2021/01/06 00:36:47;;;;;;;44.50;21.53;;;1.20;88.50;;;;;;5018610;28;20705;-80
2021/01/06 00:39:14;;;;;;;46.87;21.73;;;1.20;88.60;;;;;;5016886;28;20260;-83
2021/01/06 00:41:40;;;;;;;49.23;21.50;;;1.20;88.90;;;;;;5017723;28;20210;-79
2021/01/06 00:44:07;;;;;;;43.80;20.73;;;1.20;89.40;;;;;;5020324;28;20208;-83
2021/01/06 00:46:35;;;;;;;44.47;20.60;;;1.20;89.80;;;;;;5019344;28;20236;-84
2021/01/06 00:49:04;;;;;;;43.27;20.20;;;1.20;90.10;;;;;;5029581;28;20197;-80
2021/01/06 00:51:32;;;;;;;45.13;20.70;;;1.40;90.20;;;;;;5035275;28;20218;-80
2021/01/06 00:53:58;;;;;;;45.97;20.73;;;1.30;90.20;;;;;;5034784;28;20205;-79
2021/01/06 00:56:29;;;;;;;45.10;21.30;;;1.20;90.10;;;;;;5024275;28;20212;-80
2021/01/06 00:58:56;;;;;;;44.33;21.63;;;1.20;90.70;;;;;;5016161;28;20215;-81
2021/01/06 01:01:23;;;;;;;48.57;21.57;;;1.20;90.70;;;;;;5017990;28;20216;-78
2021/01/06 01:03:49;;;;;;;49.33;21.23;;;1.20;90.80;;;;;;5017340;28;20224;-82
2021/01/06 01:06:23;;;;;;;50.97;21.70;;;1.10;90.90;;;;;;5019133;28;20285;-84
2021/01/06 01:08:50;;;;;;;45.23;20.00;;;1.10;90.90;;;;;;5018501;28;20223;-81
2021/01/06 01:11:17;;;;;;;52.33;23.13;;;1.00;91.30;;;;;;5017150;28;20634;-84
2021/01/06 01:13:43;;;;;;;45.67;21.63;;;0.90;91.20;;;;;;5018073;28;20302;-79
2021/01/06 01:16:09;;;;;;;45.80;21.30;;;0.80;91.50;;;;;;5019718;28;20674;-80
2021/01/06 01:18:36;;;;;;;50.73;22.83;;;0.80;91.50;;;;;;5016838;28;20321;-79
2021/01/06 01:21:02;;;;;;;51.13;22.03;;;0.70;91.70;;;;;;5018463;28;20209;-81
2021/01/06 01:23:29;;;;;;;48.23;21.00;;;0.70;91.50;;;;;;5031932;28;20242;-79
2021/01/06 01:25:57;;;;;;;48.60;22.17;;;0.60;91.80;;;;;;5031123;28;20215;-80
2021/01/06 01:28:24;;;;;;;47.33;21.70;;;0.60;92.20;;;;;;5027122;28;20245;-79
2021/01/06 01:30:51;;;;;;;54.03;24.17;;;0.50;92.30;;;;;;5021581;28;20209;-84
2021/01/06 01:33:19;;;;;;;52.23;21.70;;;0.50;92.40;;;;;;5016309;28;22272;-83
2021/01/06 01:35:45;;;;;;;50.00;22.40;;;0.60;92.70;;;;;;5017920;28;20214;-81
2021/01/06 01:38:15;;;;;;;56.33;23.00;;;0.70;92.60;;;;;;5025743;28;20216;-80
2021/01/06 01:40:41;;;;;;;47.50;22.20;;;0.70;92.50;;;;;;5025823;28;20213;-80
2021/01/06 01:43:17;;;;;;;47.97;22.13;;;0.70;92.60;;;;;;5022802;28;20225;-77
2021/01/06 01:46:30;;;;;;;51.27;23.97;;;0.80;92.40;;;;;;5020037;28;20234;-81
2021/01/06 01:48:57;;;;;;;49.20;22.67;;;0.90;92.00;;;;;;5028481;28;20215;-80
2021/01/06 01:51:32;;;;;;;53.13;23.20;;;0.80;91.70;;;;;;5027879;28;20533;-81
2021/01/06 01:54:03;;;;;;;54.80;23.20;;;0.60;92.20;;;;;;5028661;28;20289;-80
2021/01/06 01:56:36;;;;;;;52.27;23.00;;;0.60;92.60;;;;;;5023304;28;20312;-81
2021/01/06 01:59:09;;;;;;;54.77;22.80;;;0.60;92.50;;;;;;5027738;28;20207;-85
2021/01/06 02:01:37;;;;;;;49.87;22.17;;;0.60;92.70;;;;;;5023015;28;20247;-80
2021/01/06 02:04:10;;;;;;;51.47;22.43;;;0.50;92.90;;;;;;5029433;28;20201;-80
2021/01/06 02:06:42;;;;;;;51.13;23.20;;;0.50;92.80;;;;;;5018329;28;20730;-80
2021/01/06 02:09:14;;;;;;;48.63;22.40;;;0.60;93.50;;;;;;5022040;28;20246;-84
2021/01/06 02:11:42;;;;;;;54.40;24.17;;;0.50;93.50;;;;;;5026750;28;20210;-79
2021/01/06 02:14:14;;;;;;;54.87;24.23;;;0.60;93.60;;;;;;5026468;28;20739;-81
2021/01/06 02:16:48;;;;;;;52.37;24.17;;;0.70;93.40;;;;;;5024996;28;20204;-79
2021/01/06 02:19:19;;;;;;;54.57;23.53;;;0.80;93.00;;;;;;5025268;28;20260;-83
2021/01/06 02:21:47;;;;;;;52.70;23.27;;;0.90;92.80;;;;;;5028304;28;20208;-80
2021/01/06 02:24:13;;;;;;;53.57;23.83;;;0.80;92.70;;;;;;5024580;28;20204;-82
2021/01/06 02:26:40;;;;;;;55.63;23.87;;;0.70;92.90;;;;;;5026292;28;20227;-79
2021/01/06 02:29:06;;;;;;;57.80;25.07;;;0.70;93.20;;;;;;5023061;28;20615;-81
2021/01/06 02:31:33;;;;;;;54.20;24.90;;;0.60;93.40;;;;;;5017772;28;20204;-83
2021/01/06 02:33:59;;;;;;;54.03;23.30;;;0.50;93.60;;;;;;5028226;28;20206;-83
2021/01/06 02:36:26;;;;;;;56.40;24.83;;;0.50;93.70;;;;;;5027947;28;20208;-80
2021/01/06 02:38:53;;;;;;;55.13;24.83;;;0.30;94.10;;;;;;5029116;28;20302;-79
2021/01/06 02:41:20;;;;;;;53.83;23.43;;;0.40;94.10;;;;;;5023770;28;20203;-82
2021/01/06 02:43:48;;;;;;;50.47;23.60;;;0.50;94.10;;;;;;5027852;28;20682;-79
2021/01/06 02:46:15;;;;;;;56.17;25.20;;;0.30;93.80;;;;;;5030299;28;20692;-79
2021/01/06 02:48:43;;;;;;;48.57;23.03;;;0.40;94.10;;;;;;5033111;28;20220;-78
2021/01/06 02:51:16;;;;;;;61.67;24.57;;;0.40;94.10;;;;;;5027684;28;20235;-81
2021/01/06 02:53:48;;;;;;;52.20;23.93;;;0.40;94.10;;;;;;5028412;28;20600;-80
2021/01/06 02:56:17;;;;;;;54.40;24.47;;;0.50;94.10;;;;;;5025569;28;20214;-81
2021/01/06 02:58:46;;;;;;;53.77;23.37;;;0.50;93.90;;;;;;5028079;28;20227;-81
2021/01/06 03:01:16;;;;;;;49.33;24.10;;;0.50;93.70;;;;;;5025163;28;20258;-83
2021/01/06 03:03:43;;;;;;;52.30;23.90;;;0.50;93.80;;;;;;5026092;28;20740;-80
2021/01/06 03:06:16;;;;;;;51.43;23.30;;;0.50;93.70;;;;;;5027834;28;20228;-81
2021/01/06 03:08:42;;;;;;;61.03;24.97;;;0.40;94.00;;;;;;5030541;28;20230;-79
2021/01/06 03:11:09;;;;;;;60.53;24.93;;;0.20;94.10;;;;;;5028300;28;20615;-80
2021/01/06 03:13:37;;;;;;;51.63;24.20;;;0.30;94.10;;;;;;5023910;28;20232;-79
2021/01/06 03:16:04;;;;;;;53.03;24.80;;;0.40;94.40;;;;;;5024923;28;20649;-79
2021/01/06 03:18:31;;;;;;;53.33;23.47;;;0.40;94.10;;;;;;5026292;28;20707;-80
2021/01/06 03:21:01;;;;;;;52.87;23.60;;;0.40;94.10;;;;;;5027722;28;20208;-82
2021/01/06 03:23:32;;;;;;;50.43;23.00;;;0.50;94.10;;;;;;5026699;28;20240;-80
2021/01/06 03:26:01;;;;;;;51.50;24.23;;;0.60;93.60;;;;;;5028672;28;20219;-79
2021/01/06 03:28:29;;;;;;;53.47;23.93;;;0.50;93.30;;;;;;5026888;28;20218;-80
2021/01/06 03:30:58;;;;;;;52.53;23.40;;;0.30;93.70;;;;;;5028621;28;20673;-81
2021/01/06 03:33:31;;;;;;;49.13;23.27;;;0.40;94.40;;;;;;5024979;28;20311;-79
2021/01/06 03:36:02;;;;;;;48.23;22.67;;;0.40;94.10;;;;;;5028564;28;20259;-79
2021/01/06 03:38:33;;;;;;;49.73;22.77;;;0.40;94.10;;;;;;5025357;28;20236;-80
2021/01/06 03:41:00;;;;;;;52.27;23.10;;;0.30;94.10;;;;;;5022894;28;20202;-79
2021/01/06 03:43:30;;;;;;;50.03;23.40;;;0.30;94.10;;;;;;5024462;28;20247;-80
2021/01/06 03:46:03;;;;;;;52.60;22.67;;;0.30;94.10;;;;;;5027392;28;20229;-79
2021/01/06 03:48:39;;;;;;;51.77;22.83;;;0.30;94.10;;;;;;5025514;28;20237;-80
2021/01/06 03:51:20;;;;;;;49.60;22.23;;;0.20;94.10;;;;;;5025760;28;20195;-82
2021/01/06 03:53:48;;;;;;;47.90;22.17;;;0.20;94.30;;;;;;5025911;28;20769;-81
2021/01/06 03:56:20;;;;;;;46.23;22.63;;;0.20;94.10;;;;;;5023604;28;20220;-83
2021/01/06 03:58:53;;;;;;;48.57;23.00;;;0.20;94.10;;;;;;5026291;28;20219;-80
2021/01/06 04:01:32;;;;;;;50.53;23.90;;;0.10;94.00;;;;;;5022186;28;20271;-83
2021/01/06 04:04:05;;;;;;;49.63;22.70;;;0.00;94.00;;;;;;5024816;28;20486;-81
2021/01/06 04:06:34;;;;;;;50.20;23.30;;;0.00;94.00;;;;;;5026632;28;20239;-80
2021/01/06 04:09:06;;;;;;;52.17;23.10;;;0.10;94.00;;;;;;5020714;28;20445;-81
2021/01/06 04:11:36;;;;;;;50.67;22.90;;;0.10;94.00;;;;;;5026032;28;20208;-85
2021/01/06 04:14:03;;;;;;;49.43;22.60;;;0.10;94.00;;;;;;5025227;28;20758;-84
2021/01/06 04:16:31;;;;;;;50.07;22.83;;;0.20;93.60;;;;;;5026038;28;20198;-80
2021/01/06 04:18:57;;;;;;;48.10;22.97;;;0.30;93.60;;;;;;5026408;28;20208;-82
2021/01/06 04:21:29;;;;;;;49.30;22.67;;;0.30;93.80;;;;;;5027423;28;20202;-80
2021/01/06 04:23:56;;;;;;;46.03;22.60;;;0.40;93.50;;;;;;5022525;28;20216;-82
2021/01/06 04:26:23;;;;;;;47.10;21.53;;;0.50;92.60;;;;;;5025191;28;20567;-81
2021/01/06 04:28:49;;;;;;;45.70;22.17;;;0.60;92.80;;;;;;5025535;28;20223;-81
2021/01/06 04:31:19;;;;;;;44.67;21.63;;;0.50;92.50;;;;;;5026816;28;20202;-80
2021/01/06 04:33:48;;;;;;;50.13;23.40;;;0.40;92.70;;;;;;5021250;28;20594;-79
2021/01/06 04:36:17;;;;;;;43.83;21.67;;;0.30;92.90;;;;;;5025851;28;20203;-79
2021/01/06 04:38:45;;;;;;;46.93;20.93;;;0.50;93.10;;;;;;5022155;28;20220;-78
2021/01/06 04:41:27;;;;;;;44.13;21.80;;;0.60;92.70;;;;;;5027361;28;20690;-81
2021/01/06 04:44:02;;;;;;;49.90;21.87;;;0.50;92.50;;;;;;5024436;28;20218;-81
2021/01/06 04:46:36;;;;;;;45.30;21.87;;;0.40;92.60;;;;;;5022777;28;20221;-79
2021/01/06 04:49:12;;;;;;;44.33;20.53;;;0.40;92.90;;;;;;5023254;28;20623;-80
2021/01/06 04:51:54;;;;;;;47.13;22.07;;;0.50;92.70;;;;;;5025074;28;20689;-80
2021/01/06 04:54:51;;;;;;;45.77;21.43;;;0.50;92.50;;;;;;5026242;28;20207;-83
2021/01/06 04:57:33;;;;;;;47.43;21.40;;;0.60;92.20;;;;;;5022945;28;20227;-82
2021/01/06 05:00:46;;;;;;;45.37;21.10;;;0.50;92.10;;;;;;5020164;28;20230;-79
2021/01/06 05:03:36;;;;;;;42.17;20.67;;;0.40;92.60;;;;;;5000102;28;20692;-80
2021/01/06 05:06:23;;;;;;;44.30;20.63;;;0.40;92.60;;;;;;5025744;28;20446;-79
2021/01/06 05:08:52;;;;;;;44.03;20.77;;;0.30;92.70;;;;;;5029173;28;20230;-80
2021/01/06 05:11:25;;;;;;;44.43;20.83;;;0.20;93.00;;;;;;5030950;28;20198;-83
2021/01/06 05:13:57;;;;;;;40.13;19.97;;;0.20;93.40;;;;;;5030768;28;20221;-79
2021/01/06 05:16:33;;;;;;;49.47;22.77;;;0.30;93.30;;;;;;5026619;28;20569;-80
2021/01/06 05:19:00;;;;;;;46.47;21.73;;;0.20;93.30;;;;;;5024028;28;20222;-80
2021/01/06 05:21:28;;;;;;;40.33;20.40;;;0.20;93.80;;;;;;5027713;28;20210;-79
2021/01/06 05:23:59;;;;;;;47.73;21.70;;;0.20;94.10;;;;;;5029823;28;20227;-81
2021/01/06 05:26:26;;;;;;;44.43;21.10;;;0.30;94.10;;;;;;5025725;28;20227;-79
2021/01/06 05:28:52;;;;;;;45.30;21.73;;;0.30;94.10;;;;;;5028512;28;20230;-83
2021/01/06 05:31:19;;;;;;;48.17;22.37;;;0.40;93.80;;;;;;5029553;28;20213;-79
2021/01/06 05:33:48;;;;;;;45.27;21.07;;;0.30;94.10;;;;;;5028056;28;20382;-79
2021/01/06 05:36:18;;;;;;;45.20;21.93;;;0.30;93.90;;;;;;5027536;28;20203;-80
2021/01/06 05:38:45;;;;;;;46.67;21.80;;;0.30;93.70;;;;;;5027810;28;20214;-79
2021/01/06 05:41:12;;;;;;;49.07;21.40;;;0.20;94.10;;;;;;5028730;28;20202;-80
2021/01/06 05:43:44;;;;;;;45.77;21.07;;;0.20;94.10;;;;;;5024816;28;20232;-79
2021/01/06 05:46:17;;;;;;;49.73;22.43;;;0.20;94.10;;;;;;5027690;28;20229;-81
2021/01/06 05:48:50;;;;;;;45.20;21.07;;;0.20;94.10;;;;;;5020121;28;20226;-80
2021/01/06 05:51:21;;;;;;;46.70;20.70;;;0.30;94.10;;;;;;5020640;28;20211;-84
2021/01/06 05:53:58;;;;;;;46.93;20.80;;;0.30;94.10;;;;;;5028909;28;20223;-81
2021/01/06 05:56:36;;;;;;;46.00;21.43;;;0.20;94.10;;;;;;5025010;28;20276;-79
2021/01/06 05:59:14;;;;;;;40.87;19.73;;;0.20;94.10;;;;;;5030014;28;20218;-80
2021/01/06 06:01:50;;;;;;;46.87;20.87;;;0.20;94.00;;;;;;5023910;28;20218;-82
2021/01/06 06:04:30;;;;;;;43.70;20.53;;;0.20;94.10;;;;;;5020643;28;20677;-80
2021/01/06 06:07:26;;;;;;;46.10;20.23;;;0.10;94.30;;;;;;5029353;28;20614;-82
2021/01/06 06:10:10;;;;;;;45.83;20.13;;;0.00;94.00;;;;;;5016688;28;20214;-79
2021/01/06 06:12:54;;;;;;;45.37;20.03;;;0.00;94.00;;;;;;5027892;28;20618;-79
2021/01/06 06:15:52;;;;;;;50.57;21.33;;;-0.10;94.00;;;;;;5029801;28;20202;-80
2021/01/06 06:18:48;;;;;;;45.90;20.67;;;-0.10;94.60;;;;;;5027204;28;20608;-83
2021/01/06 06:21:22;;;;;;;45.03;20.40;;;-0.10;94.40;;;;;;5026957;28;20674;-82
2021/01/06 06:23:59;;;;;;;45.90;21.73;;;-0.10;94.80;;;;;;5031757;28;20226;-79
2021/01/06 06:26:45;;;;;;;49.53;21.07;;;-0.10;94.90;;;;;;5029552;28;20218;-79
2021/01/06 06:29:22;;;;;;;44.83;20.63;;;-0.10;95.10;;;;;;5026293;28;20226;-79
2021/01/06 06:31:52;;;;;;;51.63;22.30;;;-0.20;94.60;;;;;;5028929;28;20203;-79
2021/01/06 06:34:26;;;;;;;46.10;20.73;;;-0.20;94.80;;;;;;5029120;28;20203;-81
2021/01/06 06:37:06;;;;;;;47.20;20.60;;;-0.20;95.00;;;;;;5029652;28;20238;-80
2021/01/06 06:39:35;;;;;;;43.77;19.67;;;-0.10;95.10;;;;;;5027865;28;20583;-83
2021/01/06 06:42:13;;;;;;;46.90;21.47;;;0.00;94.60;;;;;;5027243;28;20230;-79
2021/01/06 06:44:51;;;;;;;44.60;20.63;;;0.00;94.50;;;;;;5029365;28;20206;-79
2021/01/06 06:47:19;;;;;;;52.80;22.00;;;-0.10;94.50;;;;;;5027225;28;20644;-79
2021/01/06 06:50:13;;;;;;;45.63;20.40;;;0.00;94.70;;;;;;5028302;28;20210;-80
2021/01/06 06:52:51;;;;;;;44.97;20.57;;;0.00;94.60;;;;;;5027353;28;20239;-80
2021/01/06 06:55:34;;;;;;;47.10;21.83;;;0.00;94.80;;;;;;5027319;28;20217;-79
2021/01/06 06:58:21;;;;;;;47.63;21.13;;;-0.10;94.80;;;;;;5027964;28;20230;-79
2021/01/06 07:00:48;;;;;;;48.77;21.30;;;-0.10;95.20;;;;;;5025753;28;20720;-79
2021/01/06 07:03:21;;;;;;;51.13;22.20;;;-0.10;95.20;;;;;;5029009;28;20226;-81
2021/01/06 07:05:50;;;;;;;52.10;21.67;;;-0.10;95.30;;;;;;5019388;28;20222;-81
2021/01/06 07:08:20;;;;;;;46.17;21.40;;;-0.10;94.90;;;;;;5027586;28;20222;-80
2021/01/06 07:10:53;;;;;;;47.00;21.10;;;-0.10;94.40;;;;;;5025987;28;20198;-79
2021/01/06 07:13:23;;;;;;;43.87;20.87;;;-0.10;94.50;;;;;;5026721;28;20241;-82
2021/01/06 07:15:51;;;;;;;47.33;20.23;;;-0.10;94.00;;;;;;5025351;28;20233;-79
2021/01/06 07:18:32;;;;;;;48.17;20.80;;;-0.10;94.20;;;;;;5024100;28;20248;-79
2021/01/06 07:21:03;;;;;;;44.10;19.97;;;-0.20;94.50;;;;;;5026183;28;20222;-83
2021/01/06 07:23:33;;;;;;;49.40;21.50;;;-0.20;94.60;;;;;;5026628;28;20223;-79
2021/01/06 07:26:07;;;;;;;50.67;21.17;;;-0.20;95.00;;;;;;5022619;28;20222;-79
2021/01/06 07:28:35;;;;;;;46.90;21.70;;;-0.20;94.90;;;;;;5025365;28;20317;-79
2021/01/06 07:31:11;;;;;;;47.33;21.10;;;-0.20;94.90;;;;;;5021467;28;20229;-80
2021/01/06 07:33:39;;;;;;;43.83;19.67;;;-0.10;94.90;;;;;;5024211;28;20712;-83
2021/01/06 07:36:12;;;;;;;48.90;21.13;;;0.00;94.00;;;;;;5018677;28;20207;-80
2021/01/06 07:38:40;;;;;;;47.23;20.57;;;0.00;94.00;;;;;;5023855;28;20661;-79
2021/01/06 07:41:07;;;;;;;46.30;20.13;;;0.00;94.00;;;;;;5025986;28;20369;-81
2021/01/06 07:43:38;;;;;;;49.33;20.67;;;0.10;94.00;;;;;;5024165;28;20234;-80
2021/01/06 07:46:18;;;;;;;46.90;20.63;;;0.00;94.00;;;;;;5027612;28;20218;-78
2021/01/06 07:49:04;;;;;;;44.33;20.70;;;-0.20;94.00;;;;;;5024459;28;20652;-79
2021/01/06 07:51:37;;;;;;;46.87;20.47;;;-0.20;94.60;;;;;;5024634;28;20257;-79
2021/01/06 07:54:14;;;;;;;47.57;20.37;;;-0.10;94.50;;;;;;5029642;28;20300;-80
2021/01/06 07:56:46;;;;;;;44.70;20.20;;;-0.10;94.10;;;;;;5026523;28;20661;-80
2021/01/06 07:59:20;;;;;;;43.07;19.77;;;0.00;94.00;;;;;;5025024;28;20705;-80
2021/01/06 08:01:49;;;;;;;41.87;19.20;;;0.00;94.00;;;;;;5024220;28;20199;-82
2021/01/06 08:04:24;;;;;;;44.93;20.60;;;0.00;94.00;;;;;;5027276;28;20459;-79
2021/01/06 08:06:54;;;;;;;47.90;19.90;;;0.00;94.00;;;;;;5025793;28;20222;-83
2021/01/06 08:09:30;;;;;;;45.67;19.87;;;0.00;94.00;;;;;;5029012;28;20210;-83
2021/01/06 08:12:01;;;;;;;39.37;19.37;;;0.10;94.00;;;;;;5032840;28;20229;-79
2021/01/06 08:14:31;;;;;;;43.47;19.57;;;0.10;94.00;;;;;;5025441;28;20210;-79
2021/01/06 08:17:02;;;;;;;42.13;19.40;;;0.10;94.00;;;;;;5021402;28;20230;-77
2021/01/06 08:19:35;;;;;;;42.73;19.43;;;0.10;94.10;;;;;;5024458;28;20422;-78
2021/01/06 08:22:16;;;;;;;41.37;19.00;;;0.20;94.10;;;;;;5030331;28;20228;-77
2021/01/06 08:24:50;;;;;;;41.37;18.70;;;0.20;94.30;;;;;;5031214;28;20289;-78
2021/01/06 08:27:27;;;;;;;42.83;19.07;;;0.30;94.10;;;;;;5026714;28;20235;-78
2021/01/06 08:30:10;;;;;;;40.27;18.47;;;0.30;93.50;;;;;;5027320;28;20248;-79
2021/01/06 08:32:36;;;;;;;38.60;19.03;;;0.30;93.30;;;;;;5025574;28;20636;-78
2021/01/06 08:35:07;;;;;;;37.43;17.80;;;0.40;93.80;;;;;;5023904;28;20270;-82
2021/01/06 08:37:37;;;;;;;39.20;18.90;;;0.50;93.30;;;;;;5024366;28;20224;-80
2021/01/06 08:40:07;;;;;;;37.87;17.73;;;0.60;93.30;;;;;;5027641;28;20693;-81
2021/01/06 08:42:42;;;;;;;35.93;17.63;;;0.70;93.00;;;;;;5034601;28;20925;-81
2021/01/06 08:45:21;;;;;;;38.37;17.30;;;0.70;92.70;;;;;;5033865;28;20199;-83
2021/01/06 08:47:47;;;;;;;38.83;18.13;;;0.80;92.50;;;;;;5032684;28;20720;-80
2021/01/06 08:50:27;;;;;;;36.80;17.13;;;0.70;92.60;;;;;;5029950;28;20574;-77
2021/01/06 08:52:55;;;;;;;39.73;18.43;;;0.70;92.80;;;;;;5024853;28;20247;-79
2021/01/06 08:55:23;;;;;;;39.27;17.40;;;0.70;92.30;;;;;;5030623;28;20208;-79
2021/01/06 08:58:02;;;;;;;41.27;19.60;;;0.60;92.60;;;;;;5031155;28;20232;-86
2021/01/06 09:00:32;;;;;;;38.23;18.13;;;0.60;93.10;;;;;;5029168;28;20715;-80
2021/01/06 09:03:08;;;;;;;35.10;16.93;;;0.70;92.60;;;;;;5026694;28;20228;-80
2021/01/06 09:05:55;;;;;;;34.53;17.47;;;0.70;92.60;;;;;;5028717;28;20208;-79
2021/01/06 09:08:25;;;;;;;35.60;17.47;;;0.90;92.50;;;;;;5028236;28;20289;-85
2021/01/06 09:11:14;;;;;;;32.40;17.03;;;0.80;92.20;;;;;;5029102;28;20698;-78
2021/01/06 09:13:45;;;;;;;34.20;16.60;;;0.90;92.10;;;;;;5024061;28;20760;-81
2021/01/06 09:16:18;;;;;;;34.20;16.43;;;0.80;92.00;;;;;;5023829;28;20209;-81
2021/01/06 09:18:50;;;;;;;34.70;16.47;;;0.80;92.20;;;;;;5025328;28;20551;-78
2021/01/06 09:21:20;;;;;;;32.67;16.10;;;0.80;92.20;;;;;;5026384;28;20320;-78
2021/01/06 09:23:51;;;;;;;32.37;16.47;;;0.70;92.30;;;;;;5027093;28;20478;-80
2021/01/06 09:26:21;;;;;;;31.43;16.13;;;0.70;92.60;;;;;;5032013;28;20552;-79
2021/01/06 09:28:53;;;;;;;33.27;15.47;;;0.70;92.60;;;;;;5028954;28;20227;-79
2021/01/06 09:31:21;;;;;;;32.27;15.77;;;0.70;92.50;;;;;;5030213;28;20204;-82
2021/01/06 09:33:50;;;;;;;31.27;15.07;;;0.80;92.70;;;;;;5031197;28;20238;-82
2021/01/06 09:36:16;;;;;;;30.23;15.43;;;0.90;92.60;;;;;;5034269;28;20205;-80
2021/01/06 09:38:46;;;;;;;29.93;15.20;;;0.90;92.40;;;;;;5031463;28;20311;-81
2021/01/06 09:41:15;;;;;;;27.43;14.00;;;0.90;92.40;;;;;;5031598;28;20296;-80
2021/01/06 09:43:47;;;;;;;27.53;14.37;;;0.90;92.30;;;;;;5029392;28;20234;-83
2021/01/06 09:46:21;;;;;;;27.97;14.00;;;0.90;92.40;;;;;;5029420;28;20226;-80
2021/01/06 09:48:56;;;;;;;30.57;14.83;;;0.80;92.60;;;;;;5030934;28;20217;-79
2021/01/06 09:51:24;;;;;;;26.17;14.00;;;0.90;92.70;;;;;;5030639;28;20196;-79
2021/01/06 09:54:04;;;;;;;27.17;13.60;;;0.80;92.20;;;;;;5031622;28;20238;-84
2021/01/06 09:56:33;;;;;;;25.70;13.17;;;0.80;92.30;;;;;;5037199;28;20663;-82
2021/01/06 09:59:00;;;;;;;26.23;12.97;;;0.80;92.50;;;;;;5026473;28;20211;-79
2021/01/06 10:01:35;;;;;;;24.60;13.10;;;0.80;92.30;;;;;;5035374;28;20200;-85
2021/01/06 10:04:13;;;;;;;23.43;12.93;;;1.00;92.30;;;;;;5033022;28;20228;-80
2021/01/06 10:06:48;;;;;;;26.60;13.87;;;1.00;92.10;;;;;;5029279;28;20226;-80
2021/01/06 10:09:25;;;;;;;27.13;13.30;;;1.10;92.00;;;;;;5027988;28;20206;-78
2021/01/06 10:12:18;;;;;;;25.53;13.43;;;1.00;91.90;;;;;;5028659;28;20232;-82
2021/01/06 10:15:09;;;;;;;26.43;14.10;;;1.10;92.10;;;;;;5030367;28;20206;-78
2021/01/06 10:17:48;;;;;;;25.83;13.20;;;1.20;91.90;;;;;;5030711;28;20232;-78
2021/01/06 10:20:33;;;;;;;26.00;13.07;;;1.20;91.80;;;;;;5033176;28;20198;-78
2021/01/06 10:23:22;;;;;;;26.70;13.70;;;1.30;91.70;;;;;;5031189;28;20216;-83
2021/01/06 10:26:22;;;;;;;24.40;12.60;;;1.30;91.60;;;;;;5035788;28;20201;-79
2021/01/06 10:28:50;;;;;;;26.00;13.50;;;1.30;91.60;;;;;;5027978;28;20222;-84
2021/01/06 10:31:18;;;;;;;26.10;14.23;;;1.50;91.40;;;;;;5028444;28;20209;-78
2021/01/06 10:34:04;;;;;;;26.43;13.63;;;1.50;91.40;;;;;;5027051;28;20692;-80
2021/01/06 10:37:04;;;;;;;23.97;13.13;;;1.70;91.30;;;;;;5021944;28;20266;-79
2021/01/06 10:39:38;;;;;;;25.70;14.27;;;1.60;91.20;;;;;;5011689;28;20237;-79
2021/01/06 10:42:06;;;;;;;25.90;13.83;;;1.70;91.00;;;;;;5023673;28;20233;-80
2021/01/06 10:44:35;;;;;;;25.10;14.03;;;1.60;91.40;;;;;;5023376;28;20214;-80
2021/01/06 10:47:25;;;;;;;27.10;13.70;;;1.70;91.40;;;;;;5025613;28;20237;-78
2021/01/06 10:50:06;;;;;;;27.00;13.50;;;1.80;90.90;;;;;;5029916;28;20195;-78
2021/01/06 10:52:55;;;;;;;25.77;13.83;;;1.90;90.80;;;;;;5029553;28;20222;-78
2021/01/06 10:55:41;;;;;;;25.90;12.73;;;1.70;91.20;;;;;;5030295;28;20206;-78
2021/01/06 10:58:19;;;;;;;26.73;13.73;;;1.60;91.30;;;;;;5029384;28;20260;-79
2021/01/06 11:00:55;;;;;;;32.97;15.07;;;1.70;91.70;;;;;;5030114;28;20229;-78
2021/01/06 11:03:33;;;;;;;27.93;14.40;;;1.70;91.10;;;;;;5027586;28;20700;-79
2021/01/06 11:06:12;;;;;;;22.87;13.30;;;1.70;91.20;;;;;;5030568;28;20271;-78
2021/01/06 11:08:59;;;;;;;24.60;12.87;;;1.70;91.20;;;;;;5034256;28;20230;-78
2021/01/06 11:11:37;;;;;;;24.97;13.33;;;1.60;91.20;;;;;;5030976;28;20249;-79
2021/01/06 11:14:30;;;;;;;26.13;13.00;;;1.60;91.40;;;;;;5030964;28;20217;-78
2021/01/06 11:17:10;;;;;;;25.63;13.07;;;1.60;91.10;;;;;;5028840;28;20233;-78
2021/01/06 11:19:53;;;;;;;27.60;14.50;;;1.60;91.40;;;;;;5034348;28;20194;-78
2021/01/06 11:22:30;;;;;;;28.10;14.03;;;1.60;92.00;;;;;;5022576;28;20227;-83
2021/01/06 11:25:00;;;;;;;25.57;13.20;;;1.60;91.60;;;;;;5027100;28;20198;-78
2021/01/06 11:27:40;;;;;;;25.63;13.80;;;1.70;91.60;;;;;;5030553;28;20229;-78
2021/01/06 11:30:22;;;;;;;25.30;12.93;;;1.70;91.50;;;;;;5027521;28;20286;-80
2021/01/06 11:32:50;;;;;;;27.23;13.77;;;1.70;91.30;;;;;;5029548;28;20236;-79
2021/01/06 11:35:25;;;;;;;27.03;15.10;;;1.60;91.50;;;;;;5031530;28;20198;-78
2021/01/06 11:37:53;;;;;;;24.30;13.50;;;1.60;91.70;;;;;;5027944;28;20316;-79
2021/01/06 11:40:52;;;;;;;23.63;12.70;;;1.60;91.60;;;;;;5027651;28;20260;-79
2021/01/06 11:43:31;;;;;;;21.73;12.73;;;1.60;91.30;;;;;;5026928;28;20233;-78
2021/01/06 11:45:58;;;;;;;22.10;12.47;;;1.50;91.60;;;;;;5027868;28;20612;-78
2021/01/06 11:48:33;;;;;;;26.63;13.23;;;1.50;91.80;;;;;;5030771;28;20221;-79
2021/01/06 11:51:18;;;;;;;25.97;13.13;;;1.70;91.70;;;;;;5030898;28;20197;-79
2021/01/06 11:53:46;;;;;;;25.13;12.83;;;1.80;91.20;;;;;;5028771;28;20248;-81
2021/01/06 11:56:19;;;;;;;22.43;12.33;;;1.80;91.20;;;;;;5030897;28;20559;-81
2021/01/06 11:59:08;;;;;;;22.73;12.90;;;1.90;91.10;;;;;;5028265;28;20214;-79
2021/01/06 12:01:59;;;;;;;23.87;13.47;;;2.00;91.30;;;;;;5027619;28;20191;-79
2021/01/06 12:05:06;;;;;;;27.03;13.50;;;1.90;91.50;;;;;;5025981;28;20206;-80
2021/01/06 12:07:40;;;;;;;22.40;12.23;;;1.90;91.70;;;;;;5027517;28;20230;-84
2021/01/06 12:10:28;;;;;;;20.63;12.57;;;1.80;91.40;;;;;;5026651;28;20611;-78
2021/01/06 12:13:03;;;;;;;22.57;12.37;;;1.90;91.30;;;;;;5029711;28;20226;-78
2021/01/06 12:16:03;;;;;;;23.00;13.23;;;1.80;91.40;;;;;;5023880;28;20197;-79
2021/01/06 12:18:48;;;;;;;22.80;13.40;;;1.70;91.20;;;;;;5017635;28;20467;-78
2021/01/06 12:21:55;;;;;;;22.23;12.73;;;1.80;91.90;;;;;;5024198;28;20744;-80
2021/01/06 12:24:45;;;;;;;22.20;13.57;;;1.70;91.40;;;;;;5018557;28;20237;-78
2021/01/06 12:27:44;;;;;;;21.97;12.63;;;1.80;91.80;;;;;;5016738;28;20247;-79
2021/01/06 12:30:44;;;;;;;22.77;12.67;;;1.80;91.80;;;;;;5007287;28;20206;-81
2021/01/06 12:33:21;;;;;;;26.07;12.93;;;1.80;91.80;;;;;;5024979;28;20248;-79
2021/01/06 12:35:48;;;;;;;23.37;12.40;;;1.90;91.70;;;;;;5032920;28;20198;-80
2021/01/06 12:38:24;;;;;;;20.37;12.57;;;1.90;91.70;;;;;;5030870;28;20241;-82
2021/01/06 12:41:05;;;;;;;20.40;12.30;;;1.80;91.70;;;;;;5023506;28;20256;-82
2021/01/06 12:43:36;;;;;;;19.60;11.43;;;1.90;91.80;;;;;;5040845;28;20221;-82
2021/01/06 12:46:09;;;;;;;24.70;12.57;;;1.90;91.90;;;;;;5034512;28;20213;-81
2021/01/06 12:48:59;;;;;;;26.77;14.43;;;1.80;91.90;;;;;;5028573;28;20603;-80
2021/01/06 12:51:28;;;;;;;23.43;13.67;;;1.70;92.50;;;;;;5023821;28;20199;-80
2021/01/06 12:53:59;;;;;;;22.40;12.23;;;1.80;92.70;;;;;;5027433;28;20219;-80
2021/01/06 12:56:34;;;;;;;23.03;12.17;;;2.00;92.10;;;;;;5030605;28;20204;-81
2021/01/06 12:59:12;;;;;;;22.27;12.43;;;1.80;92.10;;;;;;5020672;28;20233;-80
2021/01/06 13:02:17;;;;;;;21.47;11.50;;;1.80;92.10;;;;;;5029831;28;20260;-80
2021/01/06 13:04:45;;;;;;;22.53;12.67;;;1.80;91.90;;;;;;5027360;28;20199;-80
2021/01/06 13:07:24;;;;;;;21.37;12.37;;;1.90;92.10;;;;;;5029393;28;20230;-80
2021/01/06 13:09:58;;;;;;;24.57;12.00;;;1.90;91.70;;;;;;5034336;28;20687;-78